createdAt,value
2023-03-13T00:02:48.170Z,95883.00
2023-03-13T00:06:51.312Z,95876.00
2023-03-13T00:10:54.357Z,95877.00
2023-03-13T00:14:58.817Z,95872.00
2023-03-13T00:19:01.836Z,95868.00
2023-03-13T00:23:06.139Z,95861.00
2023-03-13T00:27:11.032Z,95862.00
2023-03-13T00:31:17.908Z,95854.00
2023-03-13T00:35:22.031Z,95846.00
2023-03-13T00:39:27.017Z,95839.00
2023-03-13T00:43:30.488Z,95838.00
2023-03-13T00:47:34.924Z,95840.00
2023-03-13T00:51:40.028Z,95826.00
2023-03-13T00:55:53.627Z,95829.00
2023-03-13T00:59:59.230Z,95816.00
2023-03-13T01:04:10.925Z,95811.00
2023-03-13T01:08:13.895Z,95806.00
2023-03-13T01:12:21.997Z,95797.00
2023-03-13T01:16:26.271Z,95795.00
2023-03-13T01:20:34.994Z,95803.00
2023-03-13T01:24:41.788Z,95799.00
2023-03-13T01:28:44.837Z,95804.00
2023-03-13T01:32:52.055Z,95810.00
2023-03-13T01:36:57.655Z,95796.00
2023-03-13T01:41:05.086Z,95803.00
2023-03-13T01:45:23.438Z,95801.00
2023-03-13T01:49:33.578Z,95793.00
2023-03-13T01:53:42.545Z,95781.00
2023-03-13T01:57:50.585Z,95780.00
2023-03-13T02:01:59.073Z,95789.00
2023-03-13T02:06:16.295Z,95791.00
2023-03-13T02:10:22.260Z,95783.00
2023-03-13T02:14:29.207Z,95774.00
2023-03-13T02:18:32.260Z,95766.00
2023-03-13T02:22:47.068Z,95770.00
2023-03-13T02:26:53.702Z,95759.00
2023-03-13T02:30:58.810Z,95767.00
2023-03-13T02:35:07.705Z,95768.00
2023-03-13T02:39:22.715Z,95769.00
2023-03-13T02:43:31.732Z,95763.00
2023-03-13T02:47:35.102Z,95763.00
2023-03-13T02:51:46.210Z,95758.00
2023-03-13T02:55:51.748Z,95753.00
2023-03-13T02:59:58.727Z,95762.00
2023-03-13T03:04:04.531Z,95768.00
2023-03-13T03:08:10.408Z,95762.00
2023-03-13T03:12:13.435Z,95758.00
2023-03-13T03:16:19.896Z,95751.00
2023-03-13T03:20:24.426Z,95743.00
2023-03-13T03:24:27.620Z,95738.00
2023-03-13T03:28:30.803Z,95741.00
2023-03-13T03:32:35.653Z,95737.00
2023-03-13T03:36:42.551Z,95741.00
2023-03-13T03:40:47.678Z,95737.00
2023-03-13T03:44:53.630Z,95717.00
2023-03-13T03:49:04.021Z,95724.00
2023-03-13T03:53:09.895Z,95720.00
2023-03-13T03:57:13.156Z,95718.00
2023-03-13T04:01:16.443Z,95703.00
2023-03-13T04:05:21.414Z,95693.00
2023-03-13T04:09:24.444Z,95702.00
2023-03-13T04:13:27.443Z,95690.00
2023-03-13T04:17:31.194Z,95684.00
2023-03-13T04:21:39.732Z,95685.00
2023-03-13T04:25:51.927Z,95675.00
2023-03-13T04:29:54.928Z,95673.00
2023-03-13T04:33:58.202Z,95662.00
2023-03-13T04:38:04.626Z,95658.00
2023-03-13T04:42:08.281Z,95658.00
2023-03-13T04:46:13.165Z,95642.00
2023-03-13T04:50:22.526Z,95653.00
2023-03-13T04:54:29.708Z,95650.00
2023-03-13T04:58:33.554Z,95653.00
2023-03-13T05:02:41.782Z,95644.00
2023-03-13T05:06:44.802Z,95635.00
2023-03-13T05:10:51.273Z,95630.00
2023-03-13T05:14:54.845Z,95635.00
2023-03-13T05:18:58.156Z,95620.00
2023-03-13T05:23:03.201Z,95607.00
2023-03-13T05:27:13.530Z,95606.00
2023-03-13T05:31:16.786Z,95613.00
2023-03-13T05:35:19.867Z,95592.00
2023-03-13T05:39:24.994Z,95594.00
2023-03-13T05:43:34.940Z,95605.00
2023-03-13T05:47:39.823Z,95600.00
2023-03-13T05:51:48.033Z,95597.00
2023-03-13T05:55:52.031Z,95595.00
2023-03-13T05:59:59.662Z,95598.00
2023-03-13T06:04:02.970Z,95600.00
2023-03-13T06:08:08.981Z,95601.00
2023-03-13T06:12:15.100Z,95600.00
2023-03-13T06:16:19.609Z,95587.00
2023-03-13T06:20:23.561Z,95568.00
2023-03-13T06:24:26.585Z,95579.00
2023-03-13T06:28:30.125Z,95595.00
2023-03-13T06:32:34.807Z,95577.00
2023-03-13T06:36:38.047Z,95557.00
2023-03-13T06:40:43.459Z,95549.00
2023-03-13T06:44:46.597Z,95562.00
2023-03-13T06:48:52.790Z,95557.00
2023-03-13T06:52:57.985Z,95556.00
2023-03-13T06:57:00.972Z,95571.00
2023-03-13T07:01:08.736Z,95554.00
2023-03-13T07:05:14.835Z,95559.00
2023-03-13T07:09:22.935Z,95567.00
2023-03-13T07:13:26.029Z,95566.00
2023-03-13T07:17:31.932Z,95565.00
2023-03-13T07:21:39.224Z,95562.00
2023-03-13T07:25:42.239Z,95551.00
2023-03-13T07:29:48.127Z,95555.00
2023-03-13T07:33:54.000Z,95557.00
2023-03-13T07:38:01.069Z,95548.00
2023-03-13T07:42:04.146Z,95544.00
2023-03-13T07:46:09.561Z,95545.00
2023-03-13T07:50:15.790Z,95553.00
2023-03-13T07:54:20.430Z,95536.00
2023-03-13T07:58:27.038Z,95542.00
2023-03-13T08:02:31.602Z,95543.00
2023-03-13T08:06:37.884Z,95548.00
2023-03-13T08:10:42.419Z,95542.00
2023-03-13T08:14:47.669Z,95549.00
2023-03-13T08:18:54.198Z,95546.00
2023-03-13T08:22:58.513Z,95541.00
2023-03-13T08:27:05.365Z,95545.00
2023-03-13T08:31:12.141Z,95537.00
2023-03-13T08:35:15.268Z,95532.00
2023-03-13T08:39:29.189Z,95522.00
2023-03-13T08:43:35.012Z,95515.00
2023-03-13T08:47:39.043Z,95513.00
2023-03-13T08:51:50.885Z,95510.00
2023-03-13T08:55:57.252Z,95520.00
2023-03-13T09:00:02.138Z,95509.00
2023-03-13T09:04:10.495Z,95504.00
2023-03-13T09:08:14.716Z,95506.00
2023-03-13T09:12:30.018Z,95491.00
2023-03-13T09:16:37.094Z,95489.00
2023-03-13T09:20:40.132Z,95481.00
2023-03-13T09:24:46.039Z,95486.00
2023-03-13T09:28:49.598Z,95476.00
2023-03-13T09:32:55.795Z,95477.00
2023-03-13T09:37:04.260Z,95475.00
2023-03-13T09:41:23.617Z,95463.00
2023-03-13T09:45:34.168Z,95463.00
2023-03-13T09:49:42.705Z,95463.00
2023-03-13T09:53:52.129Z,95461.00
2023-03-13T09:57:58.364Z,95449.00
2023-03-13T10:02:05.381Z,95449.00
2023-03-13T10:10:56.973Z,95454.00
2023-03-13T10:15:17.364Z,95458.00
2023-03-13T10:19:28.343Z,95460.00
2023-03-13T10:23:39.710Z,95463.00
2023-03-13T10:27:50.996Z,95453.00
2023-03-13T10:32:02.485Z,95443.00
2023-03-13T10:36:12.802Z,95446.00
2023-03-13T10:40:28.600Z,95448.00
2023-03-13T10:44:34.568Z,95436.00
2023-03-13T10:48:38.425Z,95450.00
2023-03-13T10:52:47.694Z,95448.00
2023-03-13T10:56:56.274Z,95434.00
2023-03-13T11:01:20.355Z,95433.00
2023-03-13T11:05:34.289Z,95445.00
2023-03-13T11:09:38.347Z,95435.00
2023-03-13T11:13:44.832Z,95439.00
2023-03-13T11:17:56.204Z,95435.00
2023-03-13T11:22:12.066Z,95433.00
2023-03-13T11:26:27.127Z,95434.00
2023-03-13T11:30:51.495Z,95428.00
2023-03-13T11:34:59.578Z,95421.00
2023-03-13T11:39:32.116Z,95410.00
2023-03-13T11:43:51.071Z,95406.00
2023-03-13T11:48:02.058Z,95416.00
2023-03-13T11:52:23.228Z,95403.00
2023-03-13T11:56:33.506Z,95417.00
2023-03-13T12:00:41.243Z,95421.00
2023-03-13T12:04:48.734Z,95414.00
2023-03-13T12:08:56.375Z,95401.00
2023-03-13T12:13:07.611Z,95402.00
2023-03-13T12:17:19.225Z,95392.00
2023-03-13T12:21:32.233Z,95390.00
2023-03-13T12:25:39.931Z,95365.00
2023-03-13T12:29:50.128Z,95361.00
2023-03-13T12:34:01.196Z,95350.00
2023-03-13T12:38:14.833Z,95350.00
2023-03-13T12:42:31.413Z,95358.00
2023-03-13T12:46:42.876Z,95361.00
2023-03-13T12:50:59.497Z,95351.00
2023-03-13T12:55:36.652Z,95343.00
2023-03-13T12:59:42.234Z,95346.00
2023-03-13T13:03:53.516Z,95337.00
2023-03-13T13:07:57.638Z,95320.00
2023-03-13T13:12:07.086Z,95319.00
2023-03-13T13:16:18.688Z,95307.00
2023-03-13T13:20:40.147Z,95289.00
2023-03-13T13:24:50.802Z,95274.00
2023-03-13T13:28:56.021Z,95271.00
2023-03-13T13:33:37.212Z,95266.00
2023-03-13T13:37:42.012Z,95244.00
2023-03-13T13:41:48.031Z,95237.00
2023-03-13T13:46:03.118Z,95229.00
2023-03-13T13:50:18.914Z,95229.00
2023-03-13T13:54:40.841Z,95221.00
2023-03-13T13:58:46.824Z,95209.00
2023-03-13T14:02:56.334Z,95209.00
2023-03-13T14:07:03.770Z,95197.00
2023-03-13T14:11:16.286Z,95198.00
2023-03-13T14:15:21.997Z,95193.00
2023-03-13T14:19:31.656Z,95176.00
2023-03-13T14:23:42.701Z,95176.00
2023-03-13T14:27:47.477Z,95162.00
2023-03-13T14:31:54.960Z,95152.00
2023-03-13T14:36:02.508Z,95147.00
2023-03-13T14:40:10.788Z,95129.00
2023-03-13T14:44:25.738Z,95129.00
2023-03-13T14:48:33.182Z,95116.00
2023-03-13T14:52:39.876Z,95101.00
2023-03-13T14:56:43.889Z,95093.00
2023-03-13T15:00:48.080Z,95076.00
2023-03-13T15:05:01.267Z,95072.00
2023-03-13T15:09:21.306Z,95078.00
2023-03-13T15:13:26.217Z,95067.00
2023-03-13T15:17:29.921Z,95063.00
2023-03-13T15:21:35.187Z,95046.00
2023-03-13T15:25:41.162Z,95038.00
2023-03-13T15:29:45.058Z,95027.00
2023-03-13T15:33:49.185Z,95009.00
2023-03-13T15:37:54.231Z,94996.00
2023-03-13T15:42:02.271Z,94994.00
2023-03-13T15:46:05.964Z,94983.00
2023-03-13T15:50:15.868Z,94983.00
2023-03-13T15:54:18.893Z,94981.00
2023-03-13T15:58:24.931Z,94977.00
2023-03-13T16:02:31.652Z,94966.00
2023-03-13T16:06:34.694Z,94955.00
2023-03-13T16:10:37.802Z,94956.00
2023-03-13T16:14:42.803Z,94937.00
2023-03-13T16:18:45.871Z,94919.00
2023-03-13T16:22:53.336Z,94907.00
2023-03-13T16:26:56.760Z,94909.00
2023-03-13T16:31:04.720Z,94898.00
2023-03-13T16:35:13.222Z,94891.00
2023-03-13T16:39:17.704Z,94887.00
2023-03-13T16:43:21.108Z,94874.00
2023-03-13T16:47:29.490Z,94876.00
2023-03-13T16:51:32.863Z,94872.00
2023-03-13T16:55:37.372Z,94872.00
2023-03-13T16:59:46.492Z,94867.00
2023-03-13T17:03:51.024Z,94856.00
2023-03-13T17:07:57.074Z,94856.00
2023-03-13T17:12:00.138Z,94853.00
2023-03-13T17:16:03.248Z,94841.00
2023-03-13T17:20:10.164Z,94839.00
2023-03-13T17:24:13.169Z,94826.00
2023-03-13T17:28:16.555Z,94832.00
2023-03-13T17:32:21.895Z,94826.00
2023-03-13T17:36:28.368Z,94808.00
2023-03-13T17:40:32.682Z,94786.00
2023-03-13T17:44:36.090Z,94791.00
2023-03-13T17:48:44.299Z,94777.00
2023-03-13T17:52:48.903Z,94781.00
2023-03-13T17:56:53.617Z,94761.00
2023-03-13T18:00:56.822Z,94756.00
2023-03-13T18:05:06.100Z,94754.00
2023-03-13T18:09:16.171Z,94751.00
2023-03-13T18:13:23.750Z,94755.00
2023-03-13T18:17:29.416Z,94756.00
2023-03-13T18:21:32.856Z,94750.00
2023-03-13T18:25:44.902Z,94742.00
2023-03-13T18:29:50.822Z,94726.00
2023-03-13T18:33:57.381Z,94733.00
2023-03-13T18:38:00.582Z,94715.00
2023-03-13T18:42:08.204Z,94705.00
2023-03-13T18:46:18.674Z,94696.00
2023-03-13T18:50:26.504Z,94680.00
2023-03-13T18:54:32.543Z,94667.00
2023-03-13T18:58:39.513Z,94658.00
2023-03-13T19:02:43.677Z,94646.00
2023-03-13T19:06:50.900Z,94639.00
2023-03-13T19:10:54.028Z,94635.00
2023-03-13T19:14:58.697Z,94637.00
2023-03-13T19:19:02.261Z,94633.00
2023-03-13T19:23:05.316Z,94632.00
2023-03-13T19:27:08.549Z,94620.00
2023-03-13T19:31:18.691Z,94605.00
2023-03-13T19:35:24.058Z,94597.00
2023-03-13T19:39:30.242Z,94599.00
2023-03-13T19:43:35.463Z,94586.00
2023-03-13T19:47:40.169Z,94587.00
2023-03-13T19:51:43.575Z,94598.00
2023-03-13T19:55:46.608Z,94605.00
2023-03-13T19:59:52.598Z,94607.00
2023-03-13T20:03:58.968Z,94601.00
2023-03-13T20:08:01.996Z,94588.00
2023-03-13T20:12:11.125Z,94576.00
2023-03-13T20:16:14.678Z,94559.00
2023-03-13T20:20:19.724Z,94563.00
2023-03-13T20:24:23.122Z,94543.00
2023-03-13T20:28:29.090Z,94537.00
2023-03-13T20:32:32.304Z,94559.00
2023-03-13T20:36:36.768Z,94551.00
2023-03-13T20:40:39.882Z,94553.00
2023-03-13T20:44:45.825Z,94558.00
2023-03-13T20:49:14.888Z,94563.00
2023-03-13T20:53:22.128Z,94578.00
2023-03-13T20:57:30.297Z,94601.00
2023-03-13T21:01:33.453Z,94621.00
2023-03-13T21:05:39.648Z,94620.00
2023-03-13T21:09:45.363Z,94759.00
2023-03-13T21:13:49.067Z,94714.00
2023-03-13T21:17:53.978Z,94712.00
2023-03-13T21:21:58.936Z,94679.00
2023-03-13T21:26:03.608Z,94683.00
2023-03-13T21:30:11.703Z,94685.00
2023-03-13T21:34:14.907Z,94663.00
2023-03-13T21:38:20.966Z,94668.00
2023-03-13T21:42:25.788Z,94664.00
2023-03-13T21:46:33.053Z,94662.00
2023-03-13T21:50:36.361Z,94672.00
2023-03-13T21:54:44.754Z,94720.00
2023-03-13T21:58:51.699Z,94740.00
2023-03-13T22:02:54.940Z,94815.00
2023-03-13T22:06:58.524Z,94863.00
2023-03-13T22:11:05.686Z,94881.00
2023-03-13T22:15:12.406Z,94893.00
2023-03-13T22:19:24.165Z,94903.00
2023-03-13T22:23:27.643Z,94884.00
2023-03-13T22:27:33.136Z,94864.00
2023-03-13T22:31:40.035Z,94849.00
2023-03-13T22:35:48.138Z,94841.00
2023-03-13T22:39:59.006Z,94831.00
2023-03-13T22:44:04.932Z,94824.00
2023-03-13T22:48:09.586Z,94820.00
2023-03-13T22:52:12.740Z,94829.00
2023-03-13T22:56:15.802Z,94828.00
2023-03-13T23:00:19.584Z,94821.00
2023-03-13T23:04:28.402Z,94810.00
2023-03-13T23:08:32.604Z,94789.00
2023-03-13T23:12:35.728Z,94787.00
2023-03-13T23:16:38.889Z,94755.00
2023-03-13T23:20:46.242Z,94744.00
2023-03-13T23:24:49.302Z,94727.00
2023-03-13T23:28:53.875Z,94694.00
2023-03-13T23:33:00.144Z,94666.00
2023-03-13T23:37:06.944Z,94658.00
2023-03-13T23:41:11.502Z,94685.00
2023-03-13T23:45:15.206Z,94715.00
2023-03-13T23:49:18.465Z,94718.00
2023-03-13T23:53:22.963Z,94708.00
2023-03-13T23:57:26.113Z,94697.00
